Time,TemperatureF,DewpointF,PressureIn,WindDirection,WindDirectionDegrees,WindSpeedMPH,WindSpeedGustMPH,Humidity,HourlyPrecipIn,Conditions,Clouds,dailyrainin,SoftwareType,DateUTC
2013-04-24 00:06:00,39.3,15.0,30.25,NNW,345,2.0,3.0,37,0.00,,,0.00,weatherlink.com 1.10,2013-04-24 07:06:00,
2013-04-24 00:21:00,38.9,15.0,30.27,NNW,345,1.0,3.0,38,0.00,,,0.00,weatherlink.com 1.10,2013-04-24 07:21:00,
2013-04-24 00:37:00,38.5,15.0,30.27,NNW,345,0.0,3.0,39,0.00,,,0.00,weatherlink.com 1.10,2013-04-24 07:37:00,
2013-04-24 00:52:00,38.0,16.0,30.27,NNW,345,1.0,2.0,40,0.00,,,0.00,weatherlink.com 1.10,2013-04-24 07:52:00,
2013-04-24 01:07:00,37.4,16.0,30.27,NNW,344,3.0,4.0,41,0.00,,,0.00,weatherlink.com 1.10,2013-04-24 08:07:00,
2013-04-24 01:22:00,37.5,16.0,30.27,NW,324,1.0,5.0,41,0.00,,,0.00,weatherlink.com 1.10,2013-04-24 08:22:00,
2013-04-24 01:37:00,37.5,16.0,30.27,NW,324,2.0,3.0,42,0.00,,,0.00,weatherlink.com 1.10,2013-04-24 08:37:00,
2013-04-24 01:52:00,37.1,16.0,30.28,NW,324,1.0,2.0,42,0.00,,,0.00,weatherlink.com 1.10,2013-04-24 08:52:00,
2013-04-24 02:07:00,36.6,16.0,30.28,NW,324,2.0,3.0,43,0.00,,,0.00,weatherlink.com 1.10,2013-04-24 09:07:00,
2013-04-24 02:22:00,36.1,16.0,30.28,NW,324,0.0,3.0,44,0.00,,,0.00,weatherlink.com 1.10,2013-04-24 09:22:00,
2013-04-24 02:37:00,35.7,16.0,30.28,NW,324,0.0,2.0,45,0.00,,,0.00,weatherlink.com 1.10,2013-04-24 09:37:00,
2013-04-24 02:52:00,35.3,16.0,30.28,NW,324,0.0,3.0,46,0.00,,,0.00,weatherlink.com 1.10,2013-04-24 09:52:00,
2013-04-24 03:07:00,35.0,16.0,30.27,NW,324,3.0,4.0,46,0.00,,,0.00,weatherlink.com 1.10,2013-04-24 10:07:00,
2013-04-24 03:22:00,34.9,16.0,30.28,NW,323,1.0,3.0,46,0.00,,,0.00,weatherlink.com 1.10,2013-04-24 10:22:00,
2013-04-24 03:37:00,34.6,16.0,30.28,NW,323,0.0,1.0,47,0.00,,,0.00,weatherlink.com 1.10,2013-04-24 10:37:00,
2013-04-24 03:52:00,34.2,16.0,30.29,NW,323,0.0,1.0,47,0.00,,,0.00,weatherlink.com 1.10,2013-04-24 10:52:00,
2013-04-24 04:07:00,33.6,16.0,30.29,NW,323,1.0,2.0,48,0.00,,,0.00,weatherlink.com 1.10,2013-04-24 11:07:00,
2013-04-24 04:22:00,33.2,16.0,30.29,NW,323,1.0,2.0,50,0.00,,,0.00,weatherlink.com 1.10,2013-04-24 11:22:00,
2013-04-24 04:37:00,33.0,16.0,30.30,NW,323,1.0,2.0,50,0.00,,,0.00,weatherlink.com 1.10,2013-04-24 11:37:00,
2013-04-24 04:52:00,32.9,15.0,30.30,NW,323,0.0,1.0,49,0.00,,,0.00,weatherlink.com 1.10,2013-04-24 11:52:00,
2013-04-24 05:07:00,31.9,16.0,30.29,NW,323,1.0,1.0,52,0.00,,,0.00,weatherlink.com 1.10,2013-04-24 12:07:00,
2013-04-24 05:22:00,31.3,16.0,30.30,NW,323,0.0,0.0,53,0.00,,,0.00,weatherlink.com 1.10,2013-04-24 12:22:00,
2013-04-24 05:37:00,30.5,16.0,30.30,NW,323,0.0,1.0,56,0.00,,,0.00,weatherlink.com 1.10,2013-04-24 12:37:00,
2013-04-24 05:52:00,29.7,16.0,30.30,NW,323,1.0,1.0,57,0.00,,,0.00,weatherlink.com 1.10,2013-04-24 12:52:00,
2013-04-24 06:07:00,29.0,16.0,30.30,NW,323,0.0,0.0,58,0.00,,,0.00,weatherlink.com 1.10,2013-04-24 13:07:00,
2013-04-24 06:22:00,28.4,16.0,30.30,NW,323,0.0,1.0,60,0.00,,,0.00,weatherlink.com 1.10,2013-04-24 13:22:00,
2013-04-24 06:37:00,28.0,16.0,30.30,NW,323,0.0,0.0,62,0.00,,,0.00,weatherlink.com 1.10,2013-04-24 13:37:00,
2013-04-24 06:52:00,28.2,17.0,30.30,NW,323,0.0,1.0,63,0.00,,,0.00,weatherlink.com 1.10,2013-04-24 13:52:00,
2013-04-24 07:07:00,28.8,18.0,30.30,NW,323,0.0,1.0,64,0.00,,,0.00,weatherlink.com 1.10,2013-04-24 14:07:00,
2013-04-24 07:22:00,30.1,20.0,30.30,NW,323,0.0,1.0,65,0.00,,,0.00,weatherlink.com 1.10,2013-04-24 14:22:00,
2013-04-24 07:38:00,32.3,20.0,30.31,NW,323,2.0,2.0,60,0.00,,,0.00,weatherlink.com 1.10,2013-04-24 14:38:00,
2013-04-24 07:53:00,34.8,19.0,30.31,NW,323,1.0,3.0,52,0.00,,,0.00,weatherlink.com 1.10,2013-04-24 14:53:00,
2013-04-24 08:23:00,39.1,19.0,30.32,NW,323,1.0,2.0,44,0.00,,,0.00,weatherlink.com 1.10,2013-04-24 15:23:00,
2013-04-24 08:38:00,41.7,19.0,30.31,NW,323,1.0,2.0,41,0.00,,,0.00,weatherlink.com 1.10,2013-04-24 15:38:00,
2013-04-24 08:53:00,43.2,18.0,30.31,NW,323,1.0,4.0,37,0.00,,,0.00,weatherlink.com 1.10,2013-04-24 15:53:00,
2013-04-24 09:08:00,45.3,20.0,30.31,NNW,329,3.0,5.0,36,0.00,,,0.00,weatherlink.com 1.10,2013-04-24 16:08:00,
2013-04-24 09:23:00,46.2,18.0,30.30,NNW,329,2.0,5.0,33,0.00,,,0.00,weatherlink.com 1.10,2013-04-24 16:23:00,
2013-04-24 09:38:00,47.2,18.0,30.30,NNW,329,2.0,4.0,31,0.00,,,0.00,weatherlink.com 1.10,2013-04-24 16:38:00,
2013-04-24 09:53:00,47.6,19.0,30.29,NNW,329,3.0,4.0,32,0.00,,,0.00,weatherlink.com 1.10,2013-04-24 16:53:00,
2013-04-24 10:08:00,49.0,19.0,30.29,ESE,112,2.0,5.0,30,0.00,,,0.00,weatherlink.com 1.10,2013-04-24 17:08:00,
2013-04-24 10:23:00,50.6,20.0,30.29,ENE,67,3.0,5.0,30,0.00,,,0.00,weatherlink.com 1.10,2013-04-24 17:23:00,
2013-04-24 10:38:00,50.1,20.0,30.28,SE,124,6.0,7.0,30,0.00,,,0.00,weatherlink.com 1.10,2013-04-24 17:38:00,
2013-04-24 10:53:00,50.9,19.0,30.28,SE,135,3.0,6.0,28,0.00,,,0.00,weatherlink.com 1.10,2013-04-24 17:53:00,
2013-04-24 11:08:00,52.1,20.0,30.27,East,93,5.0,8.0,28,0.00,,,0.00,weatherlink.com 1.10,2013-04-24 18:08:00,
2013-04-24 11:23:00,54.2,19.0,30.27,ESE,103,1.0,5.0,25,0.00,,,0.00,weatherlink.com 1.10,2013-04-24 18:23:00,
2013-04-24 11:38:00,54.1,18.0,30.26,East,86,3.0,7.0,24,0.00,,,0.00,weatherlink.com 1.10,2013-04-24 18:38:00,
2013-04-24 11:53:00,55.9,17.0,30.25,NNW,341,3.0,7.0,22,0.00,,,0.00,weatherlink.com 1.10,2013-04-24 18:53:00,
2013-04-24 12:08:00,56.4,20.0,30.25,ESE,103,4.0,9.0,24,0.00,,,0.00,weatherlink.com 1.10,2013-04-24 19:08:00,
2013-04-24 12:23:00,58.1,20.0,30.24,NNW,339,3.0,7.0,23,0.00,,,0.00,weatherlink.com 1.10,2013-04-24 19:23:00,
2013-04-24 12:38:00,57.8,19.0,30.23,North,360,3.0,9.0,22,0.00,,,0.00,weatherlink.com 1.10,2013-04-24 19:38:00,
2013-04-24 12:53:00,59.0,19.0,30.22,NNW,342,2.0,7.0,21,0.00,,,0.00,weatherlink.com 1.10,2013-04-24 19:53:00,
2013-04-24 13:08:00,60.4,19.0,30.21,NNW,336,1.0,6.0,20,0.00,,,0.00,weatherlink.com 1.10,2013-04-24 20:08:00,
2013-04-24 13:23:00,62.1,20.0,30.20,NNE,21,3.0,8.0,20,0.00,,,0.00,weatherlink.com 1.10,2013-04-24 20:23:00,
2013-04-24 13:40:00,62.4,18.0,30.20,ENE,71,3.0,8.0,18,0.00,,,0.00,weatherlink.com 1.10,2013-04-24 20:40:00,
2013-04-24 13:54:00,62.8,18.0,30.18,NNE,14,6.0,8.0,18,0.00,,,0.00,weatherlink.com 1.10,2013-04-24 20:54:00,
2013-04-24 14:09:00,63.7,18.0,30.18,NNE,14,4.0,6.0,17,0.00,,,0.00,weatherlink.com 1.10,2013-04-24 21:09:00,
2013-04-24 14:24:00,64.6,14.0,30.17,NNE,22,4.0,9.0,14,0.00,,,0.00,weatherlink.com 1.10,2013-04-24 21:24:00,
2013-04-24 14:39:00,65.0,16.0,30.16,NE,49,1.0,10.0,15,0.00,,,0.00,weatherlink.com 1.10,2013-04-24 21:39:00,
2013-04-24 14:54:00,65.6,13.0,30.15,ENE,71,4.0,8.0,13,0.00,,,0.00,weatherlink.com 1.10,2013-04-24 21:54:00,
2013-04-24 15:09:00,66.2,15.0,30.14,NE,52,2.0,5.0,14,0.00,,,0.00,weatherlink.com 1.10,2013-04-24 22:09:00,
2013-04-24 15:24:00,66.4,14.0,30.13,NE,39,6.0,6.0,13,0.00,,,0.00,weatherlink.com 1.10,2013-04-24 22:24:00,
2013-04-24 15:39:00,66.9,14.0,30.12,NW,313,1.0,9.0,13,0.00,,,0.00,weatherlink.com 1.10,2013-04-24 22:39:00,
2013-04-24 15:54:00,66.6,16.0,30.11,NNE,14,2.0,4.0,14,0.00,,,0.00,weatherlink.com 1.10,2013-04-24 22:54:00,
2013-04-24 16:09:00,67.6,15.0,30.11,North,9,4.0,8.0,13,0.00,,,0.00,weatherlink.com 1.10,2013-04-24 23:09:00,
2013-04-24 16:24:00,67.0,14.0,30.10,NE,53,3.0,8.0,13,0.00,,,0.00,weatherlink.com 1.10,2013-04-24 23:24:00,
2013-04-24 16:39:00,67.5,13.0,30.09,North,5,4.0,11.0,12,0.00,,,0.00,weatherlink.com 1.10,2013-04-24 23:39:00,
2013-04-24 16:54:00,67.8,13.0,30.09,NNW,340,2.0,9.0,12,0.00,,,0.00,weatherlink.com 1.10,2013-04-24 23:54:00,
2013-04-24 17:09:00,67.4,15.0,30.08,NNW,345,1.0,8.0,13,0.00,,,0.00,weatherlink.com 1.10,2013-04-25 00:09:00,
2013-04-24 17:24:00,67.6,17.0,30.07,NNE,25,8.0,10.0,14,0.00,,,0.00,weatherlink.com 1.10,2013-04-25 00:24:00,
2013-04-24 17:39:00,66.9,16.0,30.07,NE,38,2.0,10.0,14,0.00,,,0.00,weatherlink.com 1.10,2013-04-25 00:39:00,
2013-04-24 17:54:00,66.5,16.0,30.07,North,360,2.0,8.0,14,0.00,,,0.00,weatherlink.com 1.10,2013-04-25 00:54:00,
2013-04-24 18:09:00,66.7,16.0,30.06,NW,306,2.0,8.0,14,0.00,,,0.00,weatherlink.com 1.10,2013-04-25 01:09:00,
2013-04-24 18:24:00,66.5,17.0,30.05,NNW,346,4.0,7.0,15,0.00,,,0.00,weatherlink.com 1.10,2013-04-25 01:24:00,
2013-04-24 18:39:00,65.9,17.0,30.05,NNW,336,3.0,7.0,15,0.00,,,0.00,weatherlink.com 1.10,2013-04-25 01:39:00,
2013-04-24 18:54:00,65.7,17.0,30.05,NNW,340,3.0,6.0,15,0.00,,,0.00,weatherlink.com 1.10,2013-04-25 01:54:00,
2013-04-24 19:09:00,65.0,18.0,30.04,NNW,346,2.0,6.0,16,0.00,,,0.00,weatherlink.com 1.10,2013-04-25 02:09:00,
2013-04-24 19:24:00,64.3,18.0,30.04,NNW,348,1.0,6.0,17,0.00,,,0.00,weatherlink.com 1.10,2013-04-25 02:24:00,
2013-04-24 19:39:00,63.6,19.0,30.04,NNW,348,3.0,4.0,18,0.00,,,0.00,weatherlink.com 1.10,2013-04-25 02:39:00,
2013-04-24 19:54:00,62.3,19.0,30.04,NNW,348,2.0,4.0,19,0.00,,,0.00,weatherlink.com 1.10,2013-04-25 02:54:00,
2013-04-24 20:24:00,59.6,20.0,30.04,NNW,348,0.0,3.0,22,0.00,,,0.00,weatherlink.com 1.10,2013-04-25 03:24:00,
2013-04-24 20:39:00,57.3,21.0,30.04,NNW,348,1.0,2.0,24,0.00,,,0.00,weatherlink.com 1.10,2013-04-25 03:39:00,
2013-04-24 20:54:00,55.2,22.0,30.05,NNW,348,0.0,1.0,27,0.00,,,0.00,weatherlink.com 1.10,2013-04-25 03:54:00,
2013-04-24 21:09:00,53.2,22.0,30.05,NNW,348,0.0,2.0,30,0.00,,,0.00,weatherlink.com 1.10,2013-04-25 04:09:00,
2013-04-24 21:25:00,51.1,22.0,30.04,NNW,348,0.0,1.0,32,0.00,,,0.00,weatherlink.com 1.10,2013-04-25 04:25:00,
2013-04-24 21:40:00,50.1,23.0,30.05,NNW,348,1.0,2.0,34,0.00,,,0.00,weatherlink.com 1.10,2013-04-25 04:40:00,
2013-04-24 21:55:00,49.0,22.0,30.05,NNW,348,0.0,2.0,35,0.00,,,0.00,weatherlink.com 1.10,2013-04-25 04:55:00,
2013-04-24 22:10:00,48.3,23.0,30.04,NNW,348,1.0,1.0,37,0.00,,,0.00,weatherlink.com 1.10,2013-04-25 05:10:00,
2013-04-24 22:25:00,48.2,23.0,30.05,NNW,348,1.0,3.0,37,0.00,,,0.00,weatherlink.com 1.10,2013-04-25 05:25:00,
2013-04-24 22:40:00,47.9,23.0,30.05,NNW,348,1.0,2.0,37,0.00,,,0.00,weatherlink.com 1.10,2013-04-25 05:40:00,
2013-04-24 22:55:00,47.6,22.0,30.05,NNW,348,1.0,4.0,37,0.00,,,0.00,weatherlink.com 1.10,2013-04-25 05:55:00,
2013-04-24 23:10:00,47.4,22.0,30.05,NNW,348,2.0,3.0,37,0.00,,,0.00,weatherlink.com 1.10,2013-04-25 06:10:00,
2013-04-24 23:25:00,46.9,22.0,30.04,NNW,348,1.0,3.0,37,0.00,,,0.00,weatherlink.com 1.10,2013-04-25 06:25:00,
2013-04-24 23:40:00,46.1,22.0,30.04,NNW,348,0.0,2.0,38,0.00,,,0.00,weatherlink.com 1.10,2013-04-25 06:40:00,
2013-04-24 23:55:00,45.2,22.0,30.04,NNW,348,0.0,2.0,40,0.00,,,0.00,weatherlink.com 1.10,2013-04-25 06:55:00,